Time;durP1;ratioP1;P1;durP2;ratioP2;P2;SDS_P1;SDS_P2;PMS_P1;PMS_P2;Temp;Humidity;BMP_temperature;BMP_pressure;BME280_temperature;BME280_humidity;BME280_pressure;Samples;Min_cycle;Max_cycle;Signal;HPM_P1;HPM_P2
2020/12/19 00:02:06;;;;;;;23.25;17.80;;;;;;;4.28;100.00;101118.13;10133862;29;20044;-70
2020/12/19 00:07:15;;;;;;;26.30;17.83;;;;;;;4.37;100.00;101109.34;10137228;29;20575;-69
2020/12/19 00:12:20;;;;;;;25.60;16.77;;;;;;;4.27;100.00;101095.53;10143679;29;20048;-70
2020/12/19 00:17:21;;;;;;;28.80;16.90;;;;;;;4.30;100.00;101094.66;10142740;29;20549;-70
2020/12/19 00:22:22;;;;;;;21.98;14.05;;;;;;;4.22;100.00;101093.88;10143722;29;20144;-70
2020/12/19 00:27:24;;;;;;;29.42;19.42;;;;;;;4.12;100.00;101077.44;10141726;29;20111;-70
2020/12/19 00:32:25;;;;;;;30.75;18.70;;;;;;;4.03;100.00;101069.72;10142806;29;20052;-70
2020/12/19 00:37:28;;;;;;;27.55;18.70;;;;;;;4.15;100.00;101067.00;10142185;29;20045;-70
2020/12/19 00:42:29;;;;;;;32.10;18.50;;;;;;;4.22;100.00;101066.06;10141707;29;20385;-70
2020/12/19 00:47:38;;;;;;;25.92;16.55;;;;;;;4.33;100.00;101061.59;10141397;29;20045;-70
2020/12/19 00:52:39;;;;;;;27.95;18.17;;;;;;;4.18;100.00;101041.75;10141994;29;20382;-70
2020/12/19 00:57:40;;;;;;;27.48;18.33;;;;;;;4.17;100.00;101031.34;10141910;29;20044;-70
2020/12/19 01:02:42;;;;;;;29.38;20.23;;;;;;;4.29;100.00;101028.59;10141204;29;20048;-70
2020/12/19 01:07:47;;;;;;;25.35;17.95;;;;;;;4.29;100.00;101022.50;10141142;29;20052;-70
2020/12/19 01:12:48;;;;;;;28.25;18.05;;;;;;;4.31;100.00;101020.75;10141170;29;20108;-70
2020/12/19 01:17:49;;;;;;;27.77;19.23;;;;;;;4.32;100.00;101014.66;10141158;29;20049;-70
2020/12/19 01:22:50;;;;;;;30.38;19.55;;;;;;;4.35;100.00;101014.63;10139268;29;20100;-70
2020/12/19 01:27:52;;;;;;;27.77;18.35;;;;;;;4.27;100.00;101016.47;10140036;29;20044;-70
2020/12/19 01:32:54;;;;;;;25.48;17.20;;;;;;;4.33;100.00;101016.38;10139934;29;20518;-70
2020/12/19 01:38:10;;;;;;;28.63;18.83;;;;;;;4.40;100.00;101012.81;10139537;29;20048;-70
2020/12/19 01:43:11;;;;;;;29.60;19.35;;;;;;;4.36;100.00;101017.19;10138804;29;20458;-70
2020/12/19 01:48:22;;;;;;;27.98;18.83;;;;;;;4.29;100.00;101009.47;10139947;29;20044;-70
2020/12/19 01:53:23;;;;;;;24.40;16.52;;;;;;;4.34;100.00;101012.91;10139165;29;20101;-70
2020/12/19 01:58:25;;;;;;;23.73;16.77;;;;;;;4.40;100.00;101002.38;10139347;29;20089;-70
2020/12/19 02:03:27;;;;;;;25.70;17.13;;;;;;;4.36;100.00;101011.09;10138679;29;20051;-70
2020/12/19 02:08:28;;;;;;;25.38;17.20;;;;;;;4.44;100.00;101007.53;10139460;29;20048;-69
2020/12/19 02:13:29;;;;;;;22.13;16.27;;;;;;;4.47;100.00;100997.06;10138942;29;20049;-70
2020/12/19 02:18:30;;;;;;;25.17;16.17;;;;;;;4.49;100.00;100997.03;10138724;29;20104;-70
2020/12/19 02:23:31;;;;;;;21.92;16.85;;;;;;;4.49;100.00;100995.31;10132672;29;20036;-70
2020/12/19 02:28:32;;;;;;;25.73;18.08;;;;;;;4.50;100.00;100996.16;10137366;29;20044;-70
2020/12/19 02:33:33;;;;;;;23.83;16.40;;;;;;;4.41;100.00;100983.25;10138109;29;20052;-70
2020/12/19 02:38:41;;;;;;;23.90;16.00;;;;;;;4.40;100.00;100981.50;10137476;29;20503;-70
2020/12/19 02:43:42;;;;;;;22.67;16.10;;;;;;;4.31;100.00;100987.72;10136055;29;20104;-70
2020/12/19 02:48:43;;;;;;;24.55;16.88;;;;;;;4.37;100.00;100982.41;10137320;29;20046;-69
2020/12/19 02:53:44;;;;;;;23.48;17.30;;;;;;;4.35;100.00;100980.72;10137204;29;20063;-70
2020/12/19 02:58:45;;;;;;;26.65;17.52;;;;;;;4.31;100.00;100979.88;10136931;29;20049;-70
2020/12/19 03:03:46;;;;;;;23.40;15.77;;;;;;;4.50;100.00;100988.34;10137261;29;20068;-70
2020/12/19 03:09:04;;;;;;;22.35;16.33;;;;;;;4.48;100.00;100969.22;10136476;29;20124;-70
2020/12/19 03:14:05;;;;;;;21.63;15.85;;;;;;;4.54;100.00;100972.63;10136233;29;20064;-70
2020/12/19 03:19:06;;;;;;;27.42;17.35;;;;;;;4.56;100.00;100962.16;10136261;29;20041;-70
2020/12/19 03:24:07;;;;;;;24.80;16.98;;;;;;;4.61;100.00;100965.56;10135825;29;20040;-70
2020/12/19 03:29:08;;;;;;;26.50;17.55;;;;;;;4.56;100.00;100962.16;10136480;29;20048;-70
2020/12/19 03:34:09;;;;;;;26.60;18.35;;;;;;;4.43;100.00;100963.22;10119523;29;20072;-70
2020/12/19 03:39:16;;;;;;;24.80;17.23;;;;;;;4.58;100.00;100956.03;10146042;29;20507;-70
2020/12/19 03:44:17;;;;;;;26.60;17.92;;;;;;;4.55;100.00;100953.47;10120347;29;20150;-70
2020/12/19 03:49:19;;;;;;;24.67;16.98;;;;;;;4.48;100.00;100958.78;10118498;29;20049;-70
2020/12/19 03:54:20;;;;;;;25.33;17.40;;;;;;;4.41;100.00;100944.97;10133989;29;20052;-69
2020/12/19 03:59:21;;;;;;;24.90;18.38;;;;;;;4.44;100.00;100946.66;10132540;29;20059;-70
2020/12/19 04:04:23;;;;;;;26.10;18.33;;;;;;;4.37;100.00;100945.88;10134948;29;20048;-70
2020/12/19 04:09:34;;;;;;;25.10;18.35;;;;;;;4.41;100.00;100938.91;10134697;29;20051;-70
2020/12/19 04:14:39;;;;;;;26.35;18.60;;;;;;;4.39;100.00;100943.25;10134222;29;20160;-70
2020/12/19 04:19:41;;;;;;;27.88;18.90;;;;;;;4.20;100.00;100934.81;10134562;29;20052;-70
2020/12/19 04:24:42;;;;;;;27.83;19.92;;;;;;;4.22;100.00;100932.19;10135361;29;20040;-70
2020/12/19 04:29:44;;;;;;;24.80;18.30;;;;;;;4.30;100.00;100939.03;10133430;29;20428;-70
2020/12/19 04:34:45;;;;;;;26.63;18.83;;;;;;;4.30;100.00;100926.00;10135465;29;20607;-70
2020/12/19 04:39:53;;;;;;;28.80;19.70;;;;;;;4.20;100.00;100913.97;10130836;29;20056;-70
2020/12/19 04:44:55;;;;;;;28.05;20.25;;;;;;;4.12;100.00;100911.44;10134563;29;20049;-70
2020/12/19 04:49:59;;;;;;;26.33;18.70;;;;;;;4.22;100.00;100916.56;10134556;29;20053;-70
2020/12/19 04:55:00;;;;;;;29.00;18.50;;;;;;;4.26;100.00;100911.28;10135190;29;20048;-70
2020/12/19 05:00:05;;;;;;;24.92;17.33;;;;;;;4.23;100.00;100913.06;10141058;29;20055;-70
2020/12/19 05:05:07;;;;;;;32.30;20.13;;;;;;;4.18;100.00;100903.53;10141338;29;20489;-70
2020/12/19 05:10:15;;;;;;;26.20;18.45;;;;;;;4.18;100.00;100890.50;10141550;29;20080;-70
2020/12/19 05:15:16;;;;;;;29.83;20.05;;;;;;;4.26;100.00;100900.00;10140744;29;20052;-70
2020/12/19 05:20:20;;;;;;;27.73;18.60;;;;;;;4.14;100.00;100901.00;10139907;29;20052;-70
2020/12/19 05:25:23;;;;;;;25.95;17.92;;;;;;;4.20;100.00;100906.13;10140410;29;20036;-69
2020/12/19 05:30:24;;;;;;;25.77;18.23;;;;;;;4.24;100.00;100893.94;10140723;29;20493;-70
2020/12/19 05:35:26;;;;;;;30.17;17.55;;;;;;;4.26;100.00;100895.66;10100480;29;20057;-70
2020/12/19 05:40:31;;;;;;;25.48;18.65;;;;;;;4.25;100.00;100895.66;10101042;29;20041;-70
2020/12/19 05:45:32;;;;;;;27.38;17.38;;;;;;;4.22;100.00;100880.91;10101035;29;20497;-70
2020/12/19 05:50:33;;;;;;;26.85;19.05;;;;;;;4.24;100.00;100888.72;10101660;29;20104;-70
2020/12/19 05:55:35;;;;;;;25.88;18.27;;;;;;;4.16;100.00;100875.78;10100783;29;20431;-70
2020/12/19 06:00:38;;;;;;;27.05;19.20;;;;;;;4.14;100.00;100865.38;10099409;29;20105;-71
2020/12/19 06:05:40;;;;;;;25.65;18.13;;;;;;;4.20;100.00;100870.50;10099160;29;20041;-69
2020/12/19 06:10:47;;;;;;;26.58;19.38;;;;;;;4.16;100.00;100876.66;10100546;29;20416;-69
2020/12/19 06:15:54;;;;;;;26.98;19.30;;;;;;;4.18;100.00;100858.38;10099473;29;20133;-69
2020/12/19 06:20:56;;;;;;;27.58;19.38;;;;;;;4.28;100.00;100853.88;10084160;29;20048;-69
2020/12/19 06:25:57;;;;;;;27.35;18.40;;;;;;;4.13;100.00;100866.25;10100278;29;20056;-69
2020/12/19 06:31:09;;;;;;;23.77;17.20;;;;;;;4.06;100.00;100871.56;10099638;29;20097;-70
2020/12/19 06:36:24;;;;;;;23.58;16.63;;;;;;;4.07;100.00;100875.91;10137061;29;20108;-69
2020/12/19 06:41:48;;;;;;;27.02;19.55;;;;;;;4.00;100.00;100872.53;10138283;29;20045;-69
2020/12/19 06:46:50;;;;;;;27.83;19.13;;;;;;;4.04;100.00;100884.63;10120001;29;20055;-69
2020/12/19 06:52:01;;;;;;;25.48;18.98;;;;;;;4.08;100.00;100888.94;10120694;29;20063;-69
2020/12/19 06:57:04;;;;;;;26.35;18.90;;;;;;;4.28;100.00;100880.81;10136028;29;20089;-69
2020/12/19 07:02:15;;;;;;;23.45;15.40;;;;;;;4.59;100.00;100883.84;10137157;29;20056;-70
2020/12/19 07:07:21;;;;;;;23.55;16.35;;;;;;;4.69;100.00;100881.94;10137050;29;20055;-69
2020/12/19 07:12:37;;;;;;;23.05;15.68;;;;;;;4.78;100.00;100892.22;10136927;29;20447;-69
2020/12/19 07:17:44;;;;;;;23.83;16.02;;;;;;;4.75;100.00;100894.91;10135384;29;20055;-69
2020/12/19 07:22:45;;;;;;;25.50;17.75;;;;;;;4.79;100.00;100894.81;10136431;29;20048;-69
2020/12/19 07:27:46;;;;;;;20.42;15.05;;;;;;;4.95;100.00;100908.47;10135518;29;20052;-71
2020/12/19 07:32:49;;;;;;;24.50;16.50;;;;;;;5.12;100.00;100900.38;10135409;29;20052;-71
2020/12/19 07:37:50;;;;;;;23.20;17.08;;;;;;;5.05;100.00;100898.75;10140672;29;20048;-71
2020/12/19 07:43:03;;;;;;;18.05;13.45;;;;;;;5.13;100.00;100887.28;10135781;29;20040;-71
2020/12/19 07:48:06;;;;;;;23.80;16.05;;;;;;;5.20;100.00;100890.66;10142221;29;20056;-71
2020/12/19 07:53:08;;;;;;;24.60;19.02;;;;;;;5.31;100.00;100867.81;10135173;29;20055;-70
2020/12/19 07:58:10;;;;;;;21.67;15.27;;;;;;;5.40;100.00;100870.25;10134984;29;20049;-71
2020/12/19 08:03:12;;;;;;;21.95;15.23;;;;;;;5.38;100.00;100858.09;10135876;29;20477;-71
2020/12/19 08:08:14;;;;;;;21.15;14.73;;;;;;;5.52;100.00;100848.28;10135581;29;20052;-68
2020/12/19 08:13:15;;;;;;;17.70;14.07;;;;;;;6.06;100.00;100841.06;10134054;29;20040;-69
2020/12/19 08:18:17;;;;;;;17.73;14.68;;;;;;;6.52;100.00;100838.25;10134403;29;20059;-69
2020/12/19 08:23:19;;;;;;;20.02;15.05;;;;;;;6.84;100.00;100816.50;10133049;29;20382;-69
2020/12/19 08:28:21;;;;;;;19.88;15.20;;;;;;;7.09;100.00;100811.50;10131819;29;20040;-69
2020/12/19 08:33:32;;;;;;;17.70;14.45;;;;;;;7.46;100.00;100795.59;10132584;29;20055;-69
2020/12/19 08:38:33;;;;;;;18.13;14.75;;;;;;;7.54;100.00;100786.63;10122308;29;20049;-69
2020/12/19 08:43:36;;;;;;;17.05;14.00;;;;;;;7.52;100.00;100756.13;10131299;29;20100;-69
2020/12/19 08:48:37;;;;;;;19.75;14.30;;;;;;;6.84;100.00;100746.66;10146865;29;20060;-69
2020/12/19 08:53:38;;;;;;;20.23;13.95;;;;;;;6.20;100.00;100755.28;10136828;29;20679;-68
2020/12/19 08:58:41;;;;;;;18.80;14.90;;;;;;;6.18;100.00;100753.63;10136453;29;20045;-69
2020/12/19 09:03:43;;;;;;;19.45;13.13;;;;;;;6.24;100.00;100771.75;10138428;29;20040;-67
2020/12/19 09:08:47;;;;;;;20.02;14.43;;;;;;;6.36;100.00;100789.81;10138480;29;20381;-68
2020/12/19 09:13:49;;;;;;;19.83;14.60;;;;;;;7.88;100.00;100815.31;10118343;29;20043;-68
2020/12/19 09:18:50;;;;;;;17.95;14.15;;;;;;;8.12;100.00;100786.66;10138596;29;20048;-68
2020/12/19 09:23:51;;;;;;;15.50;12.63;;;;;;;8.19;100.00;100777.69;10139657;29;20044;-68
2020/12/19 09:28:53;;;;;;;17.23;13.80;;;;;;;8.62;100.00;100770.13;10139360;29;20048;-68
2020/12/19 09:33:54;;;;;;;16.30;14.48;;;;;;;8.17;100.00;100761.97;10139757;29;20052;-68
2020/12/19 09:38:56;;;;;;;18.75;13.95;;;;;;;7.92;100.00;100767.13;10134688;29;20051;-67
2020/12/19 09:43:57;;;;;;;16.48;12.77;;;;;;;9.10;100.00;100769.38;10139000;29;20092;-69
2020/12/19 09:48:58;;;;;;;14.43;11.82;;;;;;;9.60;100.00;100767.50;10138923;29;20053;-68
2020/12/19 09:53:59;;;;;;;18.48;13.75;;;;;;;9.82;100.00;100754.38;10132856;29;20501;-68
2020/12/19 09:59:00;;;;;;;17.38;13.27;;;;;;;10.08;100.00;100737.56;10136386;29;20469;-68
2020/12/19 10:04:01;;;;;;;14.50;12.40;;;;;;;10.25;100.00;100743.91;10137963;29;20088;-68
2020/12/19 10:09:02;;;;;;;15.82;10.98;;;;;;;10.14;100.00;100735.53;10137507;29;20113;-68
2020/12/19 10:14:03;;;;;;;15.50;12.50;;;;;;;10.30;100.00;100729.69;10139071;29;20037;-69
2020/12/19 10:19:04;;;;;;;14.57;11.80;;;;;;;10.88;100.00;100723.66;10134308;29;20077;-69
2020/12/19 10:24:06;;;;;;;16.05;12.05;;;;;;;10.90;100.00;100719.19;10120992;29;20131;-69
2020/12/19 10:29:07;;;;;;;14.15;12.00;;;;;;;11.29;100.00;100713.94;10137252;29;20434;-69
2020/12/19 10:34:08;;;;;;;16.50;12.65;;;;;;;11.95;100.00;100695.91;10137948;29;20385;-69
2020/12/19 10:39:09;;;;;;;12.77;9.05;;;;;;;11.03;100.00;100658.88;10137029;29;20056;-69
2020/12/19 10:44:10;;;;;;;12.63;10.60;;;;;;;11.15;100.00;100665.34;10136812;29;20052;-69
2020/12/19 10:49:11;;;;;;;14.60;10.18;;;;;;;11.74;100.00;100668.72;10113486;29;20112;-69
2020/12/19 10:54:12;;;;;;;14.07;10.52;;;;;;;12.08;100.00;100661.81;10133064;29;20040;-69
2020/12/19 10:59:29;;;;;;;13.07;10.07;;;;;;;12.08;100.00;100662.66;10097564;29;20397;-69
2020/12/19 11:04:30;;;;;;;14.35;9.88;;;;;;;11.91;100.00;100644.16;10114642;29;20072;-69
2020/12/19 11:09:31;;;;;;;15.63;10.18;;;;;;;12.32;100.00;100660.56;10118450;29;20033;-69
2020/12/19 11:14:33;;;;;;;13.32;10.57;;;;;;;12.59;100.00;100649.53;10118038;29;20504;-69
2020/12/19 11:19:34;;;;;;;12.90;9.90;;;;;;;11.69;100.00;100619.72;10140076;29;20044;-69
2020/12/19 11:24:35;;;;;;;10.75;7.85;;;;;;;12.49;100.00;100639.44;10123433;29;20048;-69
2020/12/19 11:29:36;;;;;;;11.57;9.82;;;;;;;11.58;100.00;100611.47;10145536;29;20041;-70
2020/12/19 11:34:37;;;;;;;12.18;10.50;;;;;;;12.32;100.00;100631.53;10134983;29;20120;-69
2020/12/19 11:39:38;;;;;;;12.25;9.27;;;;;;;12.71;100.00;100625.13;10135367;29;20052;-70
2020/12/19 11:44:39;;;;;;;12.05;8.45;;;;;;;13.91;100.00;100611.34;10134485;29;20096;-69
2020/12/19 11:49:40;;;;;;;13.10;9.40;;;;;;;13.69;100.00;100589.72;10118504;29;20048;-69
2020/12/19 11:54:41;;;;;;;10.32;8.20;;;;;;;13.69;100.00;100592.38;10134528;29;20052;-69
2020/12/19 11:59:42;;;;;;;9.98;8.90;;;;;;;14.21;100.00;100597.28;10134225;29;20056;-70
2020/12/19 12:04:43;;;;;;;12.48;8.10;;;;;;;14.01;100.00;100567.50;10135856;29;20178;-70
2020/12/19 12:09:45;;;;;;;9.75;7.60;;;;;;;14.85;100.00;100578.31;10141322;29;20116;-69
2020/12/19 12:14:46;;;;;;;11.15;6.65;;;;;;;14.19;98.71;100546.16;10142592;29;20049;-69
2020/12/19 12:19:47;;;;;;;11.95;8.27;;;;;;;12.67;100.00;100525.75;10142984;29;20455;-69
2020/12/19 12:24:48;;;;;;;9.35;6.80;;;;;;;12.19;100.00;100534.50;10142191;29;20057;-69
2020/12/19 12:29:50;;;;;;;10.60;7.22;;;;;;;11.49;100.00;100525.69;10142960;29;20056;-69
2020/12/19 12:34:51;;;;;;;9.45;7.20;;;;;;;11.58;100.00;100542.84;10141383;29;20132;-69
2020/12/19 12:39:53;;;;;;;8.15;6.65;;;;;;;11.50;100.00;100555.56;10142174;29;20045;-69
2020/12/19 12:44:54;;;;;;;9.02;6.85;;;;;;;12.05;100.00;100565.09;10125337;29;20420;-69
2020/12/19 12:49:55;;;;;;;10.30;7.05;;;;;;;12.44;100.00;100548.13;10142371;29;20071;-69
2020/12/19 12:54:57;;;;;;;7.13;5.50;;;;;;;12.39;100.00;100548.38;10141085;29;20049;-69
2020/12/19 12:59:58;;;;;;;5.15;4.20;;;;;;;12.20;100.00;100541.50;10140926;29;20198;-70
2020/12/19 13:04:59;;;;;;;5.82;3.40;;;;;;;11.92;100.00;100534.13;10141424;29;20045;-70
2020/12/19 13:10:00;;;;;;;4.57;2.90;;;;;;;11.80;100.00;100546.16;10140552;29;20100;-70
2020/12/19 13:15:05;;;;;;;5.90;3.53;;;;;;;11.68;100.00;100536.19;10140368;29;20111;-70
2020/12/19 13:20:06;;;;;;;6.28;3.20;;;;;;;11.64;100.00;100537.25;10140146;29;20100;-70
2020/12/19 13:25:07;;;;;;;5.05;3.58;;;;;;;11.57;100.00;100534.06;10123907;29;20053;-70
2020/12/19 13:30:08;;;;;;;5.03;3.22;;;;;;;11.43;100.00;100544.47;10124647;29;20056;-70
2020/12/19 13:35:09;;;;;;;7.00;4.20;;;;;;;11.40;100.00;100545.47;10140394;29;20048;-70
2020/12/19 13:40:11;;;;;;;5.63;3.85;;;;;;;11.34;100.00;100548.41;10123169;29;20048;-70
2020/12/19 13:45:19;;;;;;;5.95;4.07;;;;;;;11.28;100.00;100556.63;10139913;29;20044;-70
2020/12/19 13:50:20;;;;;;;8.40;4.60;;;;;;;11.25;100.00;100545.34;10139375;29;20051;-70
2020/12/19 13:55:21;;;;;;;4.75;3.40;;;;;;;11.29;100.00;100554.84;10104937;29;20052;-70
2020/12/19 14:00:22;;;;;;;7.85;4.68;;;;;;;11.33;100.00;100559.03;10137617;29;20109;-70
2020/12/19 14:05:23;;;;;;;5.10;3.80;;;;;;;11.22;100.00;100562.16;10137101;29;20092;-70
2020/12/19 14:10:24;;;;;;;4.93;3.15;;;;;;;11.26;100.00;100573.44;10138178;29;20405;-70
2020/12/19 14:15:36;;;;;;;6.93;4.18;;;;;;;11.18;100.00;100573.81;10137314;29;20048;-70
2020/12/19 14:20:38;;;;;;;6.28;3.53;;;;;;;11.08;100.00;100575.16;10138312;29;20494;-70
2020/12/19 14:25:40;;;;;;;5.20;3.72;;;;;;;11.23;100.00;100574.41;10137983;29;20064;-70
2020/12/19 14:30:41;;;;;;;5.40;3.38;;;;;;;11.26;100.00;100581.34;10138270;29;20074;-70
2020/12/19 14:35:44;;;;;;;5.57;3.85;;;;;;;11.28;100.00;100571.59;10137115;29;20045;-70
2020/12/19 14:40:45;;;;;;;6.45;3.95;;;;;;;11.31;100.00;100579.34;10136885;29;20060;-70
2020/12/19 14:45:59;;;;;;;6.05;3.80;;;;;;;11.29;100.00;100576.78;10123782;29;20056;-70
2020/12/19 14:51:00;;;;;;;8.90;5.25;;;;;;;11.14;100.00;100569.59;10137177;29;20056;-70
2020/12/19 14:56:01;;;;;;;11.55;6.00;;;;;;;11.16;100.00;100577.44;10136622;29;20482;-70
2020/12/19 15:01:04;;;;;;;8.38;4.38;;;;;;;11.10;100.00;100564.53;10136328;29;20048;-70
2020/12/19 15:06:09;;;;;;;6.10;4.07;;;;;;;11.02;100.00;100586.00;10135814;29;20052;-70
2020/12/19 15:11:16;;;;;;;7.40;4.03;;;;;;;10.95;100.00;100595.97;10119991;29;20484;-70
2020/12/19 15:16:19;;;;;;;6.85;3.85;;;;;;;10.98;100.00;100602.84;10117924;29;20454;-70
2020/12/19 15:21:22;;;;;;;6.57;3.38;;;;;;;11.05;100.00;100593.75;10122602;29;20047;-71
2020/12/19 15:26:27;;;;;;;7.90;4.07;;;;;;;10.62;100.00;100593.09;10125998;29;20041;-70
2020/12/19 15:31:28;;;;;;;6.15;4.20;;;;;;;10.04;100.00;100601.75;10135578;29;20060;-71
2020/12/19 15:36:29;;;;;;;10.45;5.93;;;;;;;9.75;100.00;100621.38;10135854;29;20049;-70
2020/12/19 15:41:30;;;;;;;9.93;6.15;;;;;;;10.05;100.00;100635.03;10135701;29;20101;-70
2020/12/19 15:46:31;;;;;;;9.15;7.00;;;;;;;9.92;100.00;100626.81;10134864;29;20488;-70
2020/12/19 15:51:32;;;;;;;8.55;7.18;;;;;;;9.81;100.00;100627.22;10134660;29;20060;-70
2020/12/19 15:56:33;;;;;;;9.18;6.88;;;;;;;9.89;100.00;100634.81;10135876;29;20048;-70
2020/12/19 16:01:36;;;;;;;9.27;6.88;;;;;;;9.93;100.00;100638.19;10135146;29;20041;-70
2020/12/19 16:06:40;;;;;;;8.77;6.88;;;;;;;9.79;100.00;100639.59;10135461;29;20045;-70
2020/12/19 16:11:42;;;;;;;;;;;;;;;9.87;100.00;100663.00;10134115;29;20552;-70
2020/12/19 16:16:48;;;;;;;10.02;6.63;;;;;;;9.92;100.00;100662.78;10129948;29;20333;-71
2020/12/19 16:21:49;;;;;;;9.75;6.85;;;;;;;9.83;100.00;100664.00;10127669;29;20324;-71
2020/12/19 16:26:50;;;;;;;9.65;6.75;;;;;;;9.72;100.00;100674.94;10132844;29;20052;-71
2020/12/19 16:31:51;;;;;;;8.02;6.85;;;;;;;9.83;100.00;100682.44;10131256;29;20056;-71
2020/12/19 16:36:52;;;;;;;9.90;7.35;;;;;;;9.84;100.00;100677.13;10129806;29;20055;-71
2020/12/19 16:41:53;;;;;;;9.10;6.40;;;;;;;9.74;100.00;100675.75;10114575;29;20049;-71
2020/12/19 16:47:04;;;;;;;10.70;6.78;;;;;;;9.73;100.00;100684.56;10131682;29;20490;-71
2020/12/19 16:52:06;;;;;;;9.07;6.68;;;;;;;9.78;100.00;100687.03;10135280;29;20045;-72
2020/12/19 16:57:07;;;;;;;9.82;7.43;;;;;;;9.74;100.00;100693.31;10138750;29;20055;-71
2020/12/19 17:02:08;;;;;;;8.82;7.40;;;;;;;9.78;100.00;100689.66;10136897;29;20049;-71
2020/12/19 17:07:09;;;;;;;9.27;6.97;;;;;;;9.74;100.00;100695.94;10138382;29;20041;-71
2020/12/19 17:12:10;;;;;;;8.65;6.53;;;;;;;9.93;100.00;100714.50;10138485;29;20044;-71
2020/12/19 17:17:18;;;;;;;11.43;5.90;;;;;;;10.18;100.00;100728.44;10137916;29;20044;-71
2020/12/19 17:22:19;;;;;;;8.13;6.38;;;;;;;10.31;100.00;100708.56;10138034;29;20036;-71
2020/12/19 17:27:21;;;;;;;9.20;6.07;;;;;;;10.25;100.00;100722.84;10136129;29;20052;-71
2020/12/19 17:32:22;;;;;;;10.38;6.95;;;;;;;10.23;100.00;100716.78;10137650;29;20404;-71
2020/12/19 17:37:23;;;;;;;10.50;6.85;;;;;;;9.72;100.00;100718.81;10137480;29;20056;-71
2020/12/19 17:42:24;;;;;;;11.30;8.00;;;;;;;10.03;100.00;100745.66;10133577;29;20068;-71
2020/12/19 17:47:37;;;;;;;12.73;8.20;;;;;;;9.44;100.00;100737.44;10137444;29;20048;-71
2020/12/19 17:52:38;;;;;;;9.23;7.65;;;;;;;9.50;100.00;100772.25;10135334;29;20418;-71
2020/12/19 17:57:39;;;;;;;13.23;10.65;;;;;;;9.90;100.00;100783.88;10135897;29;20045;-71
2020/12/19 18:02:40;;;;;;;18.50;14.55;;;;;;;10.01;100.00;100772.94;10135037;29;20374;-71
2020/12/19 18:07:41;;;;;;;17.98;13.27;;;;;;;10.46;100.00;100778.19;10138217;29;20048;-71
2020/12/19 18:12:43;;;;;;;10.25;7.80;;;;;;;10.71;100.00;100760.44;10137635;29;20044;-71
2020/12/19 18:17:57;;;;;;;8.45;5.57;;;;;;;10.58;100.00;100760.09;10137117;29;20052;-71
2020/12/19 18:22:58;;;;;;;60.00;29.15;;;;;;;10.46;100.00;100741.31;10122409;29;20049;-71
2020/12/19 18:27:59;;;;;;;18.02;12.30;;;;;;;10.22;100.00;100720.31;10137846;29;20052;-71
2020/12/19 18:33:02;;;;;;;6.72;5.25;;;;;;;10.05;100.00;100725.38;10135707;29;20489;-71
2020/12/19 18:38:03;;;;;;;9.77;6.13;;;;;;;9.84;100.00;100734.13;10135826;29;20409;-71
2020/12/19 18:43:04;;;;;;;8.32;6.82;;;;;;;9.26;100.00;100732.88;10137392;29;20048;-71
2020/12/19 18:48:14;;;;;;;9.25;7.65;;;;;;;8.83;100.00;100752.78;10135544;29;20048;-71
2020/12/19 18:53:15;;;;;;;9.73;8.13;;;;;;;8.63;100.00;100771.84;10136461;29;20059;-71
2020/12/19 18:58:16;;;;;;;10.05;7.85;;;;;;;8.40;100.00;100799.78;10130605;29;20056;-71
2020/12/19 19:03:18;;;;;;;33.80;19.75;;;;;;;8.44;100.00;100804.88;10120352;29;20056;-71
2020/12/19 19:08:19;;;;;;;10.60;8.10;;;;;;;8.72;100.00;100816.19;10130619;29;20501;-71
2020/12/19 19:13:20;;;;;;;42.45;25.90;;;;;;;8.86;100.00;100834.13;10128178;29;20490;-71
2020/12/19 19:18:30;;;;;;;39.78;23.50;;;;;;;8.92;100.00;100830.44;10129680;29;20123;-71
2020/12/19 19:23:31;;;;;;;15.40;10.73;;;;;;;8.91;100.00;100818.19;10168947;29;20048;-72
2020/12/19 19:28:32;;;;;;;13.32;9.40;;;;;;;8.88;100.00;100828.81;10154157;29;20516;-71
2020/12/19 19:33:33;;;;;;;11.45;9.45;;;;;;;8.89;100.00;100828.75;10134624;29;20086;-71
2020/12/19 19:38:35;;;;;;;12.68;10.63;;;;;;;8.87;100.00;100837.63;10135928;29;20048;-71
2020/12/19 19:43:37;;;;;;;10.55;8.30;;;;;;;8.92;100.00;100849.69;10135480;29;20409;-71
2020/12/19 19:48:50;;;;;;;9.75;7.78;;;;;;;8.92;100.00;100854.09;10139735;29;20068;-71
2020/12/19 19:53:53;;;;;;;12.00;8.45;;;;;;;9.20;100.00;100867.16;10136445;29;20045;-71
2020/12/19 19:58:54;;;;;;;9.23;7.25;;;;;;;9.36;100.00;100855.19;10134729;29;20123;-71
2020/12/19 20:03:55;;;;;;;10.55;7.80;;;;;;;9.49;100.00;100857.31;10134232;29;20045;-71
2020/12/19 20:08:56;;;;;;;15.95;12.05;;;;;;;9.36;100.00;100855.19;10115819;29;20485;-71
2020/12/19 20:13:57;;;;;;;8.70;6.65;;;;;;;9.26;100.00;100856.41;10134715;29;20048;-71
2020/12/19 20:19:10;;;;;;;6.10;4.97;;;;;;;9.17;100.00;100857.59;10132308;29;20389;-71
2020/12/19 20:24:12;;;;;;;5.15;4.28;;;;;;;9.05;100.00;100850.13;10117547;29;20044;-71
2020/12/19 20:29:14;;;;;;;5.15;3.63;;;;;;;9.06;100.00;100865.84;10141642;29;20071;-71
2020/12/19 20:34:15;;;;;;;7.68;5.13;;;;;;;8.78;100.00;100849.28;10141682;29;20055;-71
2020/12/19 20:39:16;;;;;;;5.97;4.70;;;;;;;8.66;100.00;100860.19;10134964;29;20056;-71
2020/12/19 20:44:17;;;;;;;4.63;3.30;;;;;;;8.58;100.00;100868.31;10142209;29;20048;-71
2020/12/19 20:49:28;;;;;;;5.25;3.63;;;;;;;9.06;100.00;100880.75;10140406;29;20044;-71
2020/12/19 20:54:29;;;;;;;5.28;3.80;;;;;;;8.71;100.00;100866.13;10140756;29;20049;-71
2020/12/19 20:59:31;;;;;;;4.78;3.55;;;;;;;8.71;100.00;100877.50;10124599;29;20400;-72
2020/12/19 21:04:32;;;;;;;5.88;4.57;;;;;;;8.65;100.00;100858.47;10139451;29;20048;-71
2020/12/19 21:09:33;;;;;;;8.88;6.78;;;;;;;8.51;100.00;100864.16;10123160;29;20041;-71
2020/12/19 21:14:34;;;;;;;8.98;6.53;;;;;;;8.28;100.00;100857.00;10134466;29;20068;-71
2020/12/19 21:19:47;;;;;;;9.60;7.35;;;;;;;8.18;100.00;100866.03;10131710;29;20056;-71
2020/12/19 21:24:48;;;;;;;11.13;8.63;;;;;;;8.29;100.00;100892.81;10139744;29;20060;-71
2020/12/19 21:29:49;;;;;;;11.95;10.75;;;;;;;8.44;100.00;100909.03;10107172;29;20056;-71
2020/12/19 21:34:51;;;;;;;11.80;9.82;;;;;;;8.53;100.00;100906.13;10127798;29;20061;-71
2020/12/19 21:39:52;;;;;;;10.48;8.93;;;;;;;8.68;100.00;100903.88;10122077;29;20049;-71
2020/12/19 21:44:53;;;;;;;10.95;8.68;;;;;;;8.60;100.00;100884.03;10122441;29;20083;-71
2020/12/19 21:50:06;;;;;;;13.25;9.68;;;;;;;8.36;100.00;100883.03;10121700;29;20049;-71
2020/12/19 21:55:09;;;;;;;10.85;7.78;;;;;;;8.50;100.00;100899.22;10138573;29;20049;-71
2020/12/19 22:00:15;;;;;;;10.95;8.50;;;;;;;8.45;100.00;100908.16;10138378;29;20056;-72
2020/12/19 22:05:17;;;;;;;10.88;9.50;;;;;;;8.46;100.00;100901.97;10138429;29;20080;-71
2020/12/19 22:10:19;;;;;;;14.05;10.65;;;;;;;8.31;100.00;100903.28;10137624;29;20131;-71
2020/12/19 22:15:21;;;;;;;10.77;9.65;;;;;;;8.32;100.00;100913.75;10121549;29;20100;-71
2020/12/19 22:20:23;;;;;;;20.70;13.15;;;;;;;8.29;100.00;100913.81;10136185;29;20131;-71
2020/12/19 22:25:24;;;;;;;15.85;10.65;;;;;;;8.25;100.00;100924.44;10136273;29;20100;-72
2020/12/19 22:30:26;;;;;;;13.38;9.60;;;;;;;8.31;100.00;100937.41;10134977;29;20049;-71
2020/12/19 22:35:27;;;;;;;11.57;9.63;;;;;;;8.24;100.00;100927.97;10120911;29;20108;-72
2020/12/19 22:40:28;;;;;;;10.23;9.15;;;;;;;8.14;100.00;100942.25;10109341;29;20055;-71
2020/12/19 22:45:29;;;;;;;9.88;8.10;;;;;;;8.24;100.00;100933.22;10134436;29;20469;-72